Time;durP1;ratioP1;P1;durP2;ratioP2;P2;SDS_P1;SDS_P2;PMS_P1;PMS_P2;Temp;Humidity;BMP_temperature;BMP_pressure;BME280_temperature;BME280_humidity;BME280_pressure;Samples;Min_cycle;Max_cycle;Signal;HPM_P1;HPM_P2
2023/10/22 00:00:44;;;;;;;2.58;2.38;;;8.30;99.90;;;;;;5037129;28;20029;-59
2023/10/22 00:03:10;;;;;;;3.08;2.15;;;8.30;99.90;;;;;;5036475;28;20140;-59
2023/10/22 00:05:35;;;;;;;4.00;1.60;;;8.30;99.90;;;;;;5037722;28;20078;-58
2023/10/22 00:08:01;;;;;;;2.95;2.38;;;8.30;99.90;;;;;;5031363;28;20029;-59
2023/10/22 00:10:27;;;;;;;3.10;2.20;;;8.30;99.90;;;;;;5031252;28;20516;-59
2023/10/22 00:12:53;;;;;;;2.33;2.00;;;8.20;99.90;;;;;;5010121;28;20041;-60
2023/10/22 00:15:20;;;;;;;1.90;1.63;;;8.20;99.90;;;;;;5028104;28;20296;-57
2023/10/22 00:17:46;;;;;;;3.55;2.00;;;8.20;99.90;;;;;;5010042;28;20504;-58
2023/10/22 00:20:12;;;;;;;5.10;2.30;;;8.20;99.90;;;;;;5026667;28;20022;-58
2023/10/22 00:22:38;;;;;;;3.10;2.10;;;8.20;99.90;;;;;;5026459;28;20033;-60
2023/10/22 00:25:05;;;;;;;2.20;1.85;;;8.20;99.90;;;;;;5026594;28;20029;-59
2023/10/22 00:27:32;;;;;;;3.75;2.13;;;8.10;99.90;;;;;;5024777;28;20116;-61
2023/10/22 00:29:58;;;;;;;3.30;2.40;;;8.10;99.90;;;;;;5026323;28;20017;-59
2023/10/22 00:32:24;;;;;;;4.53;1.88;;;8.10;99.90;;;;;;5026020;28;20210;-60
2023/10/22 00:34:49;;;;;;;5.30;2.42;;;8.10;99.90;;;;;;5026226;28;20022;-59
2023/10/22 00:37:15;;;;;;;3.80;1.60;;;8.10;99.90;;;;;;5026325;28;20496;-61
2023/10/22 00:39:41;;;;;;;2.95;1.95;;;8.10;99.90;;;;;;5026440;28;20017;-60
2023/10/22 00:42:07;;;;;;;2.42;1.80;;;8.10;99.90;;;;;;5026027;28;20107;-61
2023/10/22 00:44:34;;;;;;;3.05;1.90;;;8.10;99.90;;;;;;5025553;28;20144;-59
2023/10/22 00:47:00;;;;;;;2.10;1.88;;;8.00;99.90;;;;;;5025442;28;20021;-58
2023/10/22 00:49:26;;;;;;;3.70;1.95;;;8.00;99.90;;;;;;5025054;28;20109;-58
2023/10/22 00:51:52;;;;;;;2.70;1.77;;;8.00;99.90;;;;;;5025852;28;20389;-61
2023/10/22 00:54:19;;;;;;;9.68;2.58;;;8.00;99.90;;;;;;5033273;28;20029;-58
2023/10/22 00:56:46;;;;;;;3.60;1.50;;;8.00;99.90;;;;;;5011944;28;20024;-60
2023/10/22 00:59:13;;;;;;;2.42;1.80;;;8.00;99.90;;;;;;5036282;28;20503;-61
2023/10/22 01:01:39;;;;;;;2.97;1.75;;;8.00;99.90;;;;;;5035185;28;20514;-59
2023/10/22 01:04:05;;;;;;;2.92;1.90;;;8.00;99.90;;;;;;5015229;28;20078;-55
2023/10/22 01:06:30;;;;;;;3.53;1.83;;;8.00;99.90;;;;;;5036149;28;20473;-60
2023/10/22 01:08:57;;;;;;;3.45;1.98;;;8.00;99.90;;;;;;5019689;28;20017;-58
2023/10/22 01:11:22;;;;;;;2.35;2.08;;;8.00;99.90;;;;;;5033373;28;20171;-57
2023/10/22 01:13:48;;;;;;;2.70;1.70;;;8.00;99.90;;;;;;5036966;28;20416;-57
2023/10/22 01:16:14;;;;;;;3.42;1.73;;;8.00;99.90;;;;;;5035877;28;20097;-60
2023/10/22 01:18:39;;;;;;;4.70;2.15;;;8.00;99.90;;;;;;5017302;28;20017;-58
2023/10/22 01:21:05;;;;;;;1.83;1.63;;;8.00;99.90;;;;;;5039106;28;20059;-60
2023/10/22 01:23:37;;;;;;;3.10;1.83;;;7.90;99.90;;;;;;5034946;28;20055;-56
2023/10/22 01:26:09;;;;;;;2.83;1.98;;;7.90;99.90;;;;;;5043336;28;20048;-59
2023/10/22 01:28:35;;;;;;;1.80;1.60;;;7.90;99.90;;;;;;5038481;28;20033;-57
2023/10/22 01:31:04;;;;;;;5.95;2.00;;;7.90;99.90;;;;;;5041745;28;20052;-58
2023/10/22 01:33:30;;;;;;;7.60;2.38;;;7.90;99.90;;;;;;5038233;28;20017;-58
2023/10/22 01:35:55;;;;;;;4.85;1.90;;;7.90;99.90;;;;;;5043126;28;20032;-56
2023/10/22 01:38:21;;;;;;;4.55;2.10;;;7.90;99.90;;;;;;5022573;28;20064;-57
2023/10/22 01:40:46;;;;;;;1.98;1.75;;;7.90;99.90;;;;;;5036961;28;20021;-59
2023/10/22 01:43:12;;;;;;;6.20;1.90;;;7.80;99.90;;;;;;5038969;28;20404;-61
2023/10/22 01:45:37;;;;;;;2.17;1.48;;;7.80;99.90;;;;;;5034690;28;20021;-60
2023/10/22 01:48:03;;;;;;;6.45;2.00;;;7.80;99.90;;;;;;5038021;28;20025;-59
2023/10/22 01:50:29;;;;;;;2.08;1.65;;;7.80;99.90;;;;;;5035927;28;20025;-58
2023/10/22 01:52:54;;;;;;;4.03;1.92;;;7.80;99.90;;;;;;5036934;28;20079;-59
2023/10/22 01:55:20;;;;;;;5.10;1.90;;;7.80;99.90;;;;;;5018612;28;20051;-61
2023/10/22 01:57:45;;;;;;;6.03;2.00;;;7.80;99.90;;;;;;5030934;28;20385;-60
2023/10/22 02:00:11;;;;;;;3.05;1.48;;;7.80;99.90;;;;;;5036790;28;20036;-59
2023/10/22 02:02:39;;;;;;;6.57;1.90;;;7.80;99.90;;;;;;5029447;28;20152;-59
2023/10/22 02:05:05;;;;;;;1.88;1.48;;;7.80;99.90;;;;;;5016940;28;20028;-60
2023/10/22 02:07:31;;;;;;;1.33;1.23;;;7.80;99.90;;;;;;5037125;28;20071;-60
2023/10/22 02:09:57;;;;;;;1.63;1.30;;;7.80;99.90;;;;;;5035870;28;20417;-59
2023/10/22 02:12:29;;;;;;;2.42;1.60;;;7.80;99.90;;;;;;5038850;28;20032;-60
2023/10/22 02:14:55;;;;;;;8.02;2.03;;;7.70;99.90;;;;;;5034514;28;20238;-56
2023/10/22 02:17:20;;;;;;;3.45;2.10;;;7.70;99.90;;;;;;5038300;28;20024;-59
2023/10/22 02:19:46;;;;;;;3.97;1.75;;;7.70;99.90;;;;;;5038629;28;20648;-58
2023/10/22 02:22:16;;;;;;;2.63;1.48;;;7.80;99.90;;;;;;5040801;28;20349;-59
2023/10/22 02:24:42;;;;;;;2.78;1.52;;;7.70;99.90;;;;;;5038687;28;20014;-60
2023/10/22 02:27:07;;;;;;;3.53;1.60;;;7.70;99.90;;;;;;5041340;28;20013;-59
2023/10/22 02:29:36;;;;;;;2.30;1.60;;;7.70;99.90;;;;;;5043958;28;20058;-60
2023/10/22 02:32:06;;;;;;;3.63;1.83;;;7.70;99.90;;;;;;5033524;28;20021;-59
2023/10/22 02:34:31;;;;;;;2.50;1.48;;;7.70;99.90;;;;;;5016403;28;20025;-60
2023/10/22 02:37:00;;;;;;;3.15;1.80;;;7.80;99.90;;;;;;5035836;28;20021;-61
2023/10/22 02:39:27;;;;;;;3.20;1.77;;;7.80;99.90;;;;;;5037516;28;20021;-59
2023/10/22 02:41:52;;;;;;;5.32;1.40;;;7.80;99.90;;;;;;5044762;28;20103;-59
2023/10/22 02:44:18;;;;;;;4.57;1.67;;;7.70;99.90;;;;;;5042279;28;20108;-61
2023/10/22 02:46:43;;;;;;;2.60;1.40;;;7.70;99.90;;;;;;5044773;28;20064;-61
2023/10/22 02:49:09;;;;;;;1.67;1.30;;;7.70;99.90;;;;;;5043480;28;20052;-59
2023/10/22 02:51:34;;;;;;;3.92;2.08;;;7.80;99.90;;;;;;5043201;28;20024;-59
2023/10/22 02:54:00;;;;;;;2.08;1.30;;;7.80;99.90;;;;;;5044397;28;20021;-58
2023/10/22 02:56:25;;;;;;;1.83;1.48;;;7.80;99.90;;;;;;5041193;28;20053;-60
2023/10/22 02:58:51;;;;;;;1.65;1.55;;;7.70;99.90;;;;;;5042663;28;20092;-58
2023/10/22 03:01:17;;;;;;;2.38;1.80;;;7.70;99.90;;;;;;5039366;28;20111;-59
2023/10/22 03:03:43;;;;;;;2.90;1.63;;;7.70;99.90;;;;;;5043184;28;20108;-58
2023/10/22 03:06:10;;;;;;;2.55;1.88;;;7.80;99.90;;;;;;5039799;28;20104;-57
2023/10/22 03:08:38;;;;;;;5.20;2.00;;;7.80;99.90;;;;;;5043810;28;20021;-59
2023/10/22 03:11:04;;;;;;;2.42;1.60;;;7.80;99.90;;;;;;5038197;28;20024;-60
2023/10/22 03:13:31;;;;;;;4.50;1.42;;;7.80;99.90;;;;;;5043335;28;20094;-59
2023/10/22 03:15:59;;;;;;;3.35;1.52;;;7.70;99.90;;;;;;5038439;28;20156;-60
2023/10/22 03:18:26;;;;;;;1.65;1.50;;;7.70;99.90;;;;;;5041690;28;20067;-60
2023/10/22 03:20:52;;;;;;;1.75;1.42;;;7.70;99.90;;;;;;5022226;28;20520;-60
2023/10/22 03:23:17;;;;;;;3.95;1.50;;;7.70;99.90;;;;;;5044252;28;20055;-59
2023/10/22 03:25:43;;;;;;;4.82;2.10;;;7.70;99.90;;;;;;5041906;28;20071;-55
2023/10/22 03:28:09;;;;;;;4.47;1.70;;;7.70;99.90;;;;;;5042267;28;20128;-60
2023/10/22 03:30:38;;;;;;;4.13;2.03;;;7.80;99.90;;;;;;5042765;28;20040;-60
2023/10/22 03:33:04;;;;;;;4.65;2.10;;;7.80;99.90;;;;;;5041288;28;20033;-58
2023/10/22 03:35:31;;;;;;;2.60;1.58;;;7.70;99.90;;;;;;5044670;28;20026;-61
2023/10/22 03:37:56;;;;;;;2.53;1.80;;;7.80;99.90;;;;;;5042452;28;20017;-59
2023/10/22 03:40:22;;;;;;;3.00;1.63;;;7.80;99.90;;;;;;5044481;28;20604;-60
2023/10/22 03:42:48;;;;;;;3.28;2.20;;;7.80;99.90;;;;;;5043092;28;20032;-60
2023/10/22 03:45:13;;;;;;;4.63;1.70;;;7.80;99.90;;;;;;5023658;28;20033;-57
2023/10/22 03:47:39;;;;;;;4.28;1.58;;;7.70;99.90;;;;;;5035943;28;20048;-59
2023/10/22 03:50:05;;;;;;;4.65;1.95;;;7.70;99.90;;;;;;5033027;28;20057;-59
2023/10/22 03:52:31;;;;;;;4.38;1.70;;;7.70;99.90;;;;;;5016507;28;20120;-59
2023/10/22 03:54:56;;;;;;;2.08;1.73;;;7.80;99.90;;;;;;5043371;28;20108;-60
2023/10/22 03:57:22;;;;;;;1.50;1.10;;;7.80;99.90;;;;;;5041882;28;20024;-60
2023/10/22 03:59:48;;;;;;;3.20;1.90;;;7.80;99.90;;;;;;5039209;28;20013;-60
2023/10/22 04:02:14;;;;;;;2.97;1.58;;;7.80;99.90;;;;;;5020669;28;20444;-61
2023/10/22 04:04:39;;;;;;;3.03;1.83;;;7.80;99.90;;;;;;5040993;28;20087;-60
2023/10/22 04:07:05;;;;;;;3.80;1.70;;;7.80;99.90;;;;;;5041328;28;20475;-58
2023/10/22 04:09:31;;;;;;;3.72;1.80;;;7.70;99.90;;;;;;5022120;28;20526;-60
2023/10/22 04:11:56;;;;;;;2.08;1.33;;;7.70;99.90;;;;;;5040647;28;20040;-58
2023/10/22 04:14:22;;;;;;;3.22;1.38;;;7.70;99.90;;;;;;5041720;28;20018;-60
2023/10/22 04:16:50;;;;;;;2.00;1.42;;;7.70;99.90;;;;;;5039481;28;20029;-61
2023/10/22 04:19:15;;;;;;;1.77;1.58;;;7.70;99.90;;;;;;5041660;28;20464;-59
2023/10/22 04:21:41;;;;;;;2.33;1.80;;;7.70;99.90;;;;;;5036849;28;20105;-58
2023/10/22 04:24:07;;;;;;;1.67;1.38;;;7.70;99.90;;;;;;5042093;28;20025;-61
2023/10/22 04:26:33;;;;;;;3.90;1.67;;;7.70;99.90;;;;;;5037387;28;20060;-60
2023/10/22 04:28:58;;;;;;;3.97;1.55;;;7.70;99.90;;;;;;5041577;28;20060;-60
2023/10/22 04:31:24;;;;;;;3.38;1.65;;;7.70;99.90;;;;;;5041395;28;20087;-61
2023/10/22 04:33:49;;;;;;;2.30;1.40;;;7.60;99.90;;;;;;5044586;28;20033;-60
2023/10/22 04:36:16;;;;;;;3.15;1.10;;;7.60;99.90;;;;;;5040082;28;20524;-61
2023/10/22 04:38:41;;;;;;;1.73;1.10;;;7.70;99.90;;;;;;5045120;28;20026;-61
2023/10/22 04:41:11;;;;;;;2.28;1.50;;;7.70;99.90;;;;;;5045010;28;20443;-60
2023/10/22 04:43:37;;;;;;;2.72;1.70;;;7.60;99.90;;;;;;5040587;28;20021;-59
2023/10/22 04:46:02;;;;;;;1.98;1.75;;;7.60;99.90;;;;;;5042370;28;20055;-59
2023/10/22 04:48:28;;;;;;;2.00;1.80;;;7.60;99.90;;;;;;5034137;28;20025;-61
2023/10/22 04:50:55;;;;;;;2.90;1.63;;;7.60;99.90;;;;;;5025286;28;20382;-61
2023/10/22 04:53:20;;;;;;;5.03;1.63;;;7.60;99.90;;;;;;5041279;28;20587;-58
2023/10/22 04:55:58;;;;;;;3.25;1.63;;;7.60;99.90;;;;;;5042091;28;20025;-58
2023/10/22 04:58:23;;;;;;;1.35;1.20;;;7.60;99.90;;;;;;5023311;28;20025;-61
2023/10/22 05:00:50;;;;;;;3.85;1.60;;;7.60;99.90;;;;;;5036104;28;20767;-58
2023/10/22 05:03:15;;;;;;;1.60;1.30;;;7.60;99.90;;;;;;5041573;28;20040;-58
2023/10/22 05:05:41;;;;;;;3.00;1.50;;;7.60;99.90;;;;;;5024179;28;20037;-58
2023/10/22 05:08:07;;;;;;;3.65;1.88;;;7.60;99.90;;;;;;5041842;28;20063;-59
2023/10/22 05:10:38;;;;;;;2.53;1.60;;;7.60;99.90;;;;;;5041317;28;20025;-56
2023/10/22 05:13:03;;;;;;;2.65;1.17;;;7.60;99.90;;;;;;5042043;28;20358;-59
2023/10/22 05:15:29;;;;;;;1.30;1.20;;;7.60;99.90;;;;;;5041124;28;20029;-61
2023/10/22 05:17:56;;;;;;;3.03;0.98;;;7.60;99.90;;;;;;5039219;28;20479;-59
2023/10/22 05:20:22;;;;;;;3.90;1.52;;;7.60;99.90;;;;;;5036387;28;20017;-58
2023/10/22 05:22:48;;;;;;;2.85;1.40;;;7.60;99.90;;;;;;5036664;28;20049;-56
2023/10/22 05:25:14;;;;;;;1.92;1.33;;;7.60;99.90;;;;;;5043057;28;20056;-60
2023/10/22 05:27:39;;;;;;;1.67;1.27;;;7.60;99.90;;;;;;5037380;28;20043;-57
2023/10/22 05:30:06;;;;;;;2.08;1.50;;;7.60;99.90;;;;;;5041602;28;20542;-56
2023/10/22 05:32:31;;;;;;;2.45;1.15;;;7.60;99.90;;;;;;5020652;28;20029;-59
2023/10/22 05:34:57;;;;;;;2.67;1.42;;;7.60;99.90;;;;;;5041762;28;20556;-58
2023/10/22 05:37:22;;;;;;;2.50;1.40;;;7.60;99.90;;;;;;5040957;28;20036;-58
2023/10/22 05:39:48;;;;;;;2.58;1.30;;;7.60;99.90;;;;;;5042667;28;20029;-57
2023/10/22 05:42:14;;;;;;;2.70;1.58;;;7.60;99.90;;;;;;5042254;28;20588;-57
2023/10/22 05:44:39;;;;;;;2.90;1.48;;;7.60;99.90;;;;;;5020305;28;20032;-58
2023/10/22 05:47:05;;;;;;;1.88;1.20;;;7.60;99.90;;;;;;5036487;28;20104;-58
2023/10/22 05:49:31;;;;;;;1.60;1.23;;;7.70;99.90;;;;;;5036752;28;20029;-58
2023/10/22 05:51:57;;;;;;;3.45;1.35;;;7.70;99.90;;;;;;5023341;28;20142;-57
2023/10/22 05:54:22;;;;;;;3.58;1.38;;;7.70;99.90;;;;;;5041096;28;20087;-59
2023/10/22 05:56:48;;;;;;;1.95;1.13;;;7.60;99.90;;;;;;5038875;28;20051;-56
2023/10/22 05:59:13;;;;;;;3.70;2.22;;;7.60;99.90;;;;;;5039685;28;20074;-61
2023/10/22 06:01:41;;;;;;;2.60;1.65;;;7.60;99.90;;;;;;5020394;28;20063;-57
2023/10/22 06:04:10;;;;;;;3.63;1.73;;;7.60;99.90;;;;;;5039247;28;20051;-58
2023/10/22 06:06:36;;;;;;;2.33;1.27;;;7.60;99.90;;;;;;5030717;28;20029;-57
2023/10/22 06:09:01;;;;;;;2.72;1.40;;;7.60;99.90;;;;;;5042052;28;20028;-59
2023/10/22 06:11:27;;;;;;;5.10;1.38;;;7.60;99.90;;;;;;5047409;28;20517;-57
2023/10/22 06:13:52;;;;;;;3.45;1.38;;;7.60;99.90;;;;;;5039934;28;20039;-58
2023/10/22 06:16:18;;;;;;;2.00;1.80;;;7.60;99.90;;;;;;5042454;28;20086;-57
2023/10/22 06:18:43;;;;;;;2.83;1.25;;;7.60;99.90;;;;;;5045850;28;20123;-59
2023/10/22 06:21:15;;;;;;;1.17;1.08;;;7.60;99.90;;;;;;5047878;28;20078;-55
2023/10/22 06:23:41;;;;;;;2.90;1.30;;;7.60;99.90;;;;;;5045098;28;20036;-59
2023/10/22 06:26:11;;;;;;;1.65;1.27;;;7.60;99.90;;;;;;5045507;28;20032;-61
2023/10/22 06:28:38;;;;;;;2.53;1.05;;;7.60;99.90;;;;;;5047629;28;20040;-58
2023/10/22 06:31:07;;;;;;;3.13;1.27;;;7.60;99.90;;;;;;5046904;28;20040;-60
2023/10/22 06:33:35;;;;;;;3.72;1.40;;;7.60;99.90;;;;;;5029650;28;20028;-55
2023/10/22 06:36:20;;;;;;;2.13;1.50;;;7.60;99.90;;;;;;5046810;28;20465;-58
2023/10/22 06:38:48;;;;;;;1.90;1.33;;;7.60;99.90;;;;;;5048961;28;20029;-60
2023/10/22 06:41:21;;;;;;;3.85;1.30;;;7.60;99.90;;;;;;5045467;28;20025;-61
2023/10/22 06:43:48;;;;;;;2.08;1.30;;;7.60;99.90;;;;;;5047423;28;20034;-60
2023/10/22 06:46:14;;;;;;;2.25;1.60;;;7.60;99.90;;;;;;5044331;28;20033;-57
2023/10/22 06:48:41;;;;;;;3.28;1.27;;;7.70;99.90;;;;;;5036688;28;20112;-58
2023/10/22 06:51:11;;;;;;;2.08;1.35;;;7.70;99.90;;;;;;5048858;28;20025;-61
2023/10/22 06:53:38;;;;;;;2.10;1.10;;;7.80;99.90;;;;;;5044191;28;20053;-59
2023/10/22 06:56:05;;;;;;;3.03;1.35;;;7.80;99.90;;;;;;5047669;28;20485;-60
2023/10/22 06:58:31;;;;;;;3.63;1.65;;;7.90;99.90;;;;;;5047084;28;20029;-60
2023/10/22 07:01:07;;;;;;;1.20;1.10;;;7.90;99.90;;;;;;5030130;28;20035;-61
2023/10/22 07:03:34;;;;;;;4.78;1.13;;;8.00;99.90;;;;;;5029272;28;20032;-55
2023/10/22 07:06:00;;;;;;;2.28;1.05;;;8.10;99.90;;;;;;5041770;28;20434;-58
2023/10/22 07:08:26;;;;;;;3.00;1.27;;;8.10;99.90;;;;;;5039007;28;20029;-57
2023/10/22 07:10:52;;;;;;;2.22;1.33;;;8.20;99.90;;;;;;5039340;28;20039;-58
2023/10/22 07:13:20;;;;;;;3.40;1.67;;;8.30;99.90;;;;;;5039053;28;20033;-58
2023/10/22 07:15:48;;;;;;;4.88;1.73;;;8.30;99.90;;;;;;5023014;28;20059;-54
2023/10/22 07:18:14;;;;;;;7.78;1.40;;;8.40;99.90;;;;;;5044206;28;20040;-58
2023/10/22 07:20:40;;;;;;;2.65;1.27;;;8.40;99.90;;;;;;5037396;28;20033;-59
2023/10/22 07:23:06;;;;;;;4.60;1.58;;;8.50;99.90;;;;;;5040159;28;20029;-60
2023/10/22 07:25:33;;;;;;;2.58;1.25;;;8.50;99.90;;;;;;5039924;28;20036;-57
2023/10/22 07:27:58;;;;;;;2.47;1.23;;;8.60;99.90;;;;;;5044723;28;20501;-54
2023/10/22 07:30:24;;;;;;;3.28;1.65;;;8.60;99.90;;;;;;5044681;28;20104;-58
2023/10/22 07:32:51;;;;;;;2.65;1.10;;;8.60;99.90;;;;;;5045219;28;20037;-55
2023/10/22 07:35:17;;;;;;;2.28;1.17;;;8.60;99.90;;;;;;5025263;28;20351;-59
2023/10/22 07:37:44;;;;;;;2.33;1.23;;;8.70;99.90;;;;;;5042304;28;20032;-57
2023/10/22 07:40:11;;;;;;;3.50;1.33;;;8.70;99.90;;;;;;5037022;28;20543;-59
2023/10/22 07:42:37;;;;;;;2.80;1.42;;;8.70;99.90;;;;;;5039959;28;20017;-56
2023/10/22 07:45:03;;;;;;;1.25;1.15;;;8.70;99.90;;;;;;5033886;28;20013;-55
2023/10/22 07:47:29;;;;;;;3.47;1.50;;;8.80;99.90;;;;;;5032247;28;20515;-58
2023/10/22 07:49:54;;;;;;;2.42;1.50;;;8.80;99.90;;;;;;5034048;28;20389;-57
2023/10/22 07:52:20;;;;;;;4.78;1.50;;;8.90;99.90;;;;;;5036751;28;20025;-55
2023/10/22 07:54:52;;;;;;;4.60;1.38;;;8.90;99.90;;;;;;5037290;28;20022;-57
2023/10/22 07:57:18;;;;;;;4.65;2.22;;;9.00;99.90;;;;;;5040555;28;20033;-59
2023/10/22 07:59:44;;;;;;;3.28;2.47;;;9.10;99.90;;;;;;5040319;28;20038;-57
2023/10/22 08:02:10;;;;;;;4.45;2.03;;;9.10;99.90;;;;;;5041138;28;20481;-58
2023/10/22 08:04:37;;;;;;;2.58;1.90;;;9.30;99.90;;;;;;5040622;28;20055;-57
2023/10/22 08:07:06;;;;;;;3.35;2.05;;;9.30;99.90;;;;;;5041563;28;20064;-58
2023/10/22 08:09:32;;;;;;;5.63;2.95;;;9.40;99.90;;;;;;5036664;28;20071;-59
2023/10/22 08:11:58;;;;;;;3.75;2.75;;;9.40;99.90;;;;;;5037316;28;20501;-58
2023/10/22 08:14:24;;;;;;;6.70;3.70;;;9.40;99.90;;;;;;5040892;28;20507;-58
2023/10/22 08:16:50;;;;;;;6.70;3.40;;;9.40;99.90;;;;;;5037150;28;20021;-57
2023/10/22 08:19:16;;;;;;;2.45;2.05;;;9.50;99.90;;;;;;5036878;28;20534;-58
2023/10/22 08:21:41;;;;;;;2.75;1.95;;;9.50;99.90;;;;;;5034150;28;20116;-61
2023/10/22 08:24:07;;;;;;;2.20;2.00;;;9.50;99.90;;;;;;5039538;28;20097;-57
2023/10/22 08:26:33;;;;;;;4.93;2.65;;;9.50;99.90;;;;;;5038740;28;20064;-58
2023/10/22 08:28:59;;;;;;;4.10;2.22;;;9.50;99.90;;;;;;5037256;28;20037;-53
2023/10/22 08:31:25;;;;;;;1.30;1.20;;;9.60;99.90;;;;;;5040590;28;20036;-57
2023/10/22 08:33:50;;;;;;;2.83;0.98;;;9.60;99.90;;;;;;5040060;28;20859;-56
2023/10/22 08:36:16;;;;;;;2.88;1.33;;;9.60;99.90;;;;;;5039682;28;20501;-59
2023/10/22 08:38:42;;;;;;;3.70;1.77;;;9.60;99.90;;;;;;5042001;28;20021;-57
2023/10/22 08:41:19;;;;;;;3.65;1.55;;;9.70;99.90;;;;;;5040397;28;20013;-60
2023/10/22 08:43:45;;;;;;;1.42;1.33;;;9.70;99.90;;;;;;5041263;28;20025;-61
2023/10/22 08:46:11;;;;;;;3.15;1.95;;;9.70;99.90;;;;;;5035584;28;20104;-58
2023/10/22 08:48:39;;;;;;;4.82;2.25;;;9.70;99.90;;;;;;5031209;28;20112;-57
2023/10/22 08:51:06;;;;;;;3.20;1.33;;;9.80;99.90;;;;;;5034338;28;20078;-60
2023/10/22 08:53:32;;;;;;;4.10;1.65;;;9.80;99.90;;;;;;5020207;28;20087;-60
2023/10/22 08:56:00;;;;;;;1.80;1.00;;;9.90;99.90;;;;;;5019635;28;20021;-60
2023/10/22 08:58:26;;;;;;;2.03;1.00;;;9.90;99.90;;;;;;5022845;28;20025;-58
2023/10/22 09:00:51;;;;;;;1.52;1.10;;;10.00;99.90;;;;;;5038115;28;20385;-60
2023/10/22 09:03:19;;;;;;;2.13;1.45;;;10.00;99.90;;;;;;5039938;28;20041;-58
2023/10/22 09:05:45;;;;;;;3.47;1.25;;;10.10;99.90;;;;;;5040073;28;20048;-60
2023/10/22 09:08:11;;;;;;;4.63;1.38;;;10.10;99.90;;;;;;5020684;28;20022;-61
2023/10/22 09:10:37;;;;;;;2.88;1.38;;;10.20;99.90;;;;;;5042473;28;20021;-60
2023/10/22 09:13:22;;;;;;;5.20;1.60;;;10.20;99.90;;;;;;5036745;28;20468;-62
2023/10/22 09:15:49;;;;;;;3.17;1.45;;;10.20;99.90;;;;;;5042123;28;20037;-60
2023/10/22 09:18:17;;;;;;;2.00;1.40;;;10.30;99.90;;;;;;5035463;28;20086;-59
2023/10/22 09:20:44;;;;;;;2.63;1.30;;;10.30;99.90;;;;;;5037288;28;20613;-61
2023/10/22 09:23:20;;;;;;;3.35;1.70;;;10.30;99.90;;;;;;5036965;28;20235;-61
2023/10/22 09:25:47;;;;;;;;;;;10.30;99.90;;;;;;5039751;28;20496;-61
2023/10/22 09:28:14;;;;;;;;;;;10.30;99.90;;;;;;5039453;28;19909;-60
2023/10/22 09:30:40;;;;;;;3.10;1.95;;;10.40;99.90;;;;;;5042166;28;20348;-59
2023/10/22 09:33:10;;;;;;;4.20;1.45;;;10.40;99.90;;;;;;5037405;28;20036;-58
2023/10/22 09:35:36;;;;;;;2.55;1.58;;;10.40;99.90;;;;;;5038388;28;20397;-62
2023/10/22 09:38:03;;;;;;;3.70;1.75;;;10.40;99.90;;;;;;5026145;28;20103;-60
2023/10/22 09:40:32;;;;;;;2.70;1.65;;;10.40;99.90;;;;;;5022458;28;20029;-61
2023/10/22 09:43:01;;;;;;;4.07;2.17;;;10.50;99.90;;;;;;5018363;28;20036;-59
2023/10/22 09:45:29;;;;;;;1.77;1.55;;;10.50;99.90;;;;;;5041259;28;20033;-59
2023/10/22 09:47:55;;;;;;;2.55;1.55;;;10.50;99.90;;;;;;5029823;28;20245;-57
2023/10/22 09:50:22;;;;;;;2.67;1.60;;;10.50;99.90;;;;;;5038184;28;20025;-56
2023/10/22 09:52:51;;;;;;;1.83;1.50;;;10.50;99.90;;;;;;5035441;28;20490;-61
2023/10/22 09:55:17;;;;;;;3.60;1.50;;;10.60;99.90;;;;;;5040640;28;20676;-59
2023/10/22 09:57:45;;;;;;;1.52;1.20;;;10.60;99.90;;;;;;5031656;28;20025;-59
2023/10/22 10:00:20;;;;;;;1.33;1.23;;;10.60;99.90;;;;;;5023081;28;20033;-60
2023/10/22 10:02:47;;;;;;;3.50;1.70;;;10.70;99.90;;;;;;5020431;28;20028;-60
2023/10/22 10:05:14;;;;;;;2.17;1.42;;;10.70;99.90;;;;;;5007722;28;20271;-58
2023/10/22 10:07:39;;;;;;;2.33;1.17;;;10.70;99.90;;;;;;5006692;28;20508;-59
2023/10/22 10:10:07;;;;;;;2.03;1.27;;;10.80;99.90;;;;;;5024177;28;20034;-56
2023/10/22 10:12:36;;;;;;;2.63;1.42;;;10.80;99.90;;;;;;5024352;28;20160;-55
2023/10/22 10:15:01;;;;;;;2.90;1.23;;;10.80;99.90;;;;;;5024345;28;20025;-60
2023/10/22 10:17:27;;;;;;;4.95;1.20;;;10.80;99.90;;;;;;5024601;28;20021;-57
2023/10/22 10:20:25;;;;;;;3.58;1.38;;;10.90;99.90;;;;;;5024166;28;20052;-59
2023/10/22 10:23:06;;;;;;;2.13;1.10;;;10.90;99.90;;;;;;5022797;28;20680;-61
2023/10/22 10:25:33;;;;;;;7.20;3.75;;;10.90;99.90;;;;;;5022690;28;20017;-60
2023/10/22 10:28:06;;;;;;;3.67;2.25;;;10.90;99.90;;;;;;5027256;28;20022;-57
2023/10/22 10:30:32;;;;;;;3.92;1.75;;;10.90;99.90;;;;;;5027803;28;20032;-57
2023/10/22 10:32:58;;;;;;;2.65;1.83;;;10.90;99.90;;;;;;5026551;28;20075;-60
2023/10/22 10:35:26;;;;;;;1.52;1.38;;;10.90;99.90;;;;;;5028415;28;20025;-61
2023/10/22 10:38:13;;;;;;;3.88;1.33;;;10.90;99.90;;;;;;5026366;28;20089;-58
2023/10/22 10:40:46;;;;;;;2.55;1.60;;;11.00;99.90;;;;;;5010028;28;20032;-59
2023/10/22 10:43:12;;;;;;;3.92;2.08;;;10.90;99.90;;;;;;5022213;28;20033;-58
2023/10/22 10:45:41;;;;;;;3.30;1.65;;;11.00;99.90;;;;;;5027013;28;20029;-58
2023/10/22 10:48:42;;;;;;;3.70;1.63;;;11.00;99.90;;;;;;5028461;28;20017;-59
2023/10/22 10:51:18;;;;;;;3.05;1.80;;;11.00;99.90;;;;;;5033328;28;20017;-58
2023/10/22 10:54:04;;;;;;;3.08;1.90;;;11.00;99.90;;;;;;5021444;28;20457;-61
2023/10/22 10:56:56;;;;;;;7.20;1.95;;;11.00;99.90;;;;;;5040118;28;20028;-58
2023/10/22 10:59:26;;;;;;;3.15;1.35;;;11.00;99.90;;;;;;5038723;28;20522;-56
2023/10/22 11:01:59;;;;;;;1.63;1.42;;;11.10;99.90;;;;;;5039822;28;20071;-57
2023/10/22 11:04:25;;;;;;;3.22;1.40;;;11.10;99.90;;;;;;5043018;28;20033;-61
2023/10/22 11:06:50;;;;;;;2.25;1.40;;;11.10;99.90;;;;;;5045234;28;20545;-59
2023/10/22 11:09:16;;;;;;;1.52;1.40;;;11.10;99.90;;;;;;5043064;28;20033;-58
2023/10/22 11:12:04;;;;;;;1.27;1.17;;;11.10;99.90;;;;;;5026381;28;20060;-62
2023/10/22 11:14:34;;;;;;;2.20;1.50;;;11.20;99.90;;;;;;5042579;28;20029;-60
2023/10/22 11:17:00;;;;;;;1.52;1.42;;;11.20;99.90;;;;;;5043900;28;20024;-61
2023/10/22 11:19:27;;;;;;;2.55;1.70;;;11.20;99.90;;;;;;5039344;28;20079;-60
2023/10/22 11:21:56;;;;;;;1.42;1.33;;;11.20;99.90;;;;;;5043241;28;20049;-58
2023/10/22 11:24:29;;;;;;;3.75;1.45;;;11.20;99.90;;;;;;5022142;28;20064;-58
2023/10/22 11:27:00;;;;;;;2.85;1.98;;;11.20;99.90;;;;;;5045338;28;20028;-61
2023/10/22 11:29:25;;;;;;;2.22;2.03;;;11.20;99.90;;;;;;5039072;28;20175;-60
2023/10/22 11:31:54;;;;;;;1.60;1.50;;;11.30;99.90;;;;;;5045991;28;20063;-61
2023/10/22 11:34:20;;;;;;;2.72;2.15;;;11.20;99.90;;;;;;5039185;28;20489;-60
2023/10/22 11:36:46;;;;;;;2.13;1.65;;;11.20;99.90;;;;;;5023827;28;20032;-58
2023/10/22 11:39:19;;;;;;;9.75;5.05;;;11.20;99.90;;;;;;5042604;28;20032;-59
2023/10/22 11:41:45;;;;;;;24.10;12.38;;;11.20;99.90;;;;;;5044743;28;20536;-59
2023/10/22 11:44:33;;;;;;;26.25;14.57;;;11.20;99.90;;;;;;5043374;28;20045;-59
2023/10/22 11:47:00;;;;;;;9.10;6.30;;;11.20;99.90;;;;;;5038302;28;20078;-59
2023/10/22 11:49:26;;;;;;;8.65;6.07;;;11.30;99.90;;;;;;5019493;28;20497;-59
2023/10/22 11:51:53;;;;;;;6.38;5.00;;;11.30;99.90;;;;;;5042184;28;20037;-58
2023/10/22 11:54:18;;;;;;;8.02;6.75;;;11.30;99.90;;;;;;5010464;28;20037;-59
2023/10/22 11:56:44;;;;;;;6.07;5.05;;;11.30;99.90;;;;;;5033723;28;20021;-60
2023/10/22 11:59:09;;;;;;;4.38;3.97;;;11.30;99.90;;;;;;5025459;28;20470;-60
2023/10/22 12:01:35;;;;;;;8.65;6.82;;;11.30;99.90;;;;;;5031805;28;20028;-60
2023/10/22 12:04:02;;;;;;;5.47;3.83;;;11.30;99.90;;;;;;5028841;28;20076;-61
2023/10/22 12:06:28;;;;;;;7.35;3.97;;;11.30;99.90;;;;;;5030885;28;20192;-59
2023/10/22 12:08:53;;;;;;;5.00;3.33;;;11.30;99.90;;;;;;5035403;28;20140;-60
2023/10/22 12:11:19;;;;;;;2.55;2.15;;;11.30;99.90;;;;;;5029740;28;20036;-58
2023/10/22 12:13:45;;;;;;;2.90;2.13;;;11.30;99.90;;;;;;5036390;28;20546;-62
2023/10/22 12:16:10;;;;;;;3.15;2.40;;;11.30;99.90;;;;;;5027135;28;20030;-55
2023/10/22 12:18:37;;;;;;;2.70;2.50;;;11.40;99.90;;;;;;5027465;28;20079;-59
2023/10/22 12:21:03;;;;;;;2.75;2.42;;;11.40;99.90;;;;;;5031936;28;20030;-59
2023/10/22 12:23:29;;;;;;;5.30;2.08;;;11.50;99.90;;;;;;5032193;28;20048;-59
2023/10/22 12:25:54;;;;;;;4.07;2.22;;;11.50;99.90;;;;;;5034110;28;20545;-61
2023/10/22 12:28:24;;;;;;;2.28;1.92;;;11.50;99.90;;;;;;5033412;28;20025;-59
2023/10/22 12:30:50;;;;;;;4.55;2.67;;;11.60;99.90;;;;;;5018613;28;20025;-59
2023/10/22 12:33:15;;;;;;;7.45;6.82;;;11.60;99.90;;;;;;5028954;28;20105;-58
2023/10/22 12:35:41;;;;;;;3.80;3.30;;;11.60;99.90;;;;;;5037691;28;20060;-57
2023/10/22 12:38:06;;;;;;;8.30;5.65;;;11.60;99.90;;;;;;5015322;28;20428;-60
2023/10/22 12:40:32;;;;;;;4.28;3.40;;;11.70;99.90;;;;;;5035030;28;20028;-59
2023/10/22 12:42:57;;;;;;;23.15;17.95;;;11.70;99.90;;;;;;5016914;28;20031;-58
2023/10/22 12:45:23;;;;;;;4.40;3.88;;;11.70;99.90;;;;;;5032039;28;20033;-59
2023/10/22 12:47:48;;;;;;;5.43;3.65;;;11.80;99.90;;;;;;5035299;28;20017;-59
2023/10/22 12:50:14;;;;;;;2.67;2.47;;;11.80;99.90;;;;;;5017780;28;20028;-61
2023/10/22 12:52:39;;;;;;;2.63;2.28;;;11.80;99.90;;;;;;5034911;28;20104;-60
2023/10/22 12:55:06;;;;;;;3.97;2.13;;;11.80;99.90;;;;;;5031940;28;20034;-61